Time;durP1;ratioP1;P1;durP2;ratioP2;P2;SDS_P1;SDS_P2;PMS_P1;PMS_P2;Temp;Humidity;BMP_temperature;BMP_pressure;BME280_temperature;BME280_humidity;BME280_pressure;Samples;Min_cycle;Max_cycle;Signal;HPM_P1;HPM_P2
2022/03/07 00:00:31;;;;;;;22.30;19.63;;;;;;;;;;2065020;28;20188;-56
2022/03/07 00:01:32;;;;;;;24.67;19.43;;;;;;;;;;2060363;28;20174;-59
2022/03/07 00:02:32;;;;;;;22.03;18.20;;;;;;;;;;2064994;28;20216;-58
2022/03/07 00:03:33;;;;;;;25.77;18.47;;;;;;;;;;2064260;28;20271;-61
2022/03/07 00:04:33;;;;;;;23.00;19.07;;;;;;;;;;2065131;28;20240;-57
2022/03/07 00:05:34;;;;;;;24.17;19.43;;;;;;;;;;2059098;28;20182;-56
2022/03/07 00:06:34;;;;;;;22.03;18.20;;;;;;;;;;2064905;28;20226;-58
2022/03/07 00:07:34;;;;;;;20.87;18.17;;;;;;;;;;2056032;28;20188;-58
2022/03/07 00:08:34;;;;;;;26.13;19.73;;;;;;;;;;2056723;28;20257;-58
2022/03/07 00:09:35;;;;;;;21.70;19.40;;;;;;;;;;2047402;28;20200;-57
2022/03/07 00:10:35;;;;;;;24.50;20.00;;;;;;;;;;2048912;28;20209;-56
2022/03/07 00:11:36;;;;;;;23.67;19.10;;;;;;;;;;2064118;28;20264;-57
2022/03/07 00:12:37;;;;;;;22.07;19.37;;;;;;;;;;2056788;28;20254;-57
2022/03/07 00:13:37;;;;;;;23.33;19.40;;;;;;;;;;2057773;28;20193;-57
2022/03/07 00:14:38;;;;;;;25.23;19.47;;;;;;;;;;2059354;28;20424;-57
2022/03/07 00:15:38;;;;;;;29.87;20.00;;;;;;;;;;2054035;29;20170;-62
2022/03/07 00:16:38;;;;;;;23.73;19.53;;;;;;;;;;2064764;28;20210;-54
2022/03/07 00:17:38;;;;;;;22.67;20.10;;;;;;;;;;2062174;28;20214;-54
2022/03/07 00:18:39;;;;;;;28.87;20.57;;;;;;;;;;2061872;28;20185;-57
2022/03/07 00:19:39;;;;;;;22.97;20.00;;;;;;;;;;2069505;28;20166;-56
2022/03/07 00:20:40;;;;;;;24.27;20.30;;;;;;;;;;2070088;28;20203;-56
2022/03/07 00:21:40;;;;;;;27.50;20.37;;;;;;;;;;2059426;28;20249;-57
2022/03/07 00:22:40;;;;;;;25.70;20.77;;;;;;;;;;2058350;28;20177;-56
2022/03/07 00:23:41;;;;;;;24.83;19.60;;;;;;;;;;2066041;28;20610;-56
2022/03/07 00:24:41;;;;;;;22.33;20.00;;;;;;;;;;2066138;28;20181;-58
2022/03/07 00:25:41;;;;;;;22.73;19.17;;;;;;;;;;2066136;28;20201;-56
2022/03/07 00:26:41;;;;;;;25.17;19.83;;;;;;;;;;2056822;28;20178;-57
2022/03/07 00:27:42;;;;;;;23.23;19.97;;;;;;;;;;2056482;28;20261;-58
2022/03/07 00:28:44;;;;;;;22.63;20.10;;;;;;;;;;2064669;28;20173;-58
2022/03/07 00:29:45;;;;;;;24.73;19.27;;;;;;;;;;2056617;28;20451;-58
2022/03/07 00:30:45;;;;;;;25.90;19.97;;;;;;;;;;2049031;28;20440;-58
2022/03/07 00:31:46;;;;;;;22.37;19.97;;;;;;;;;;2057194;28;20296;-58
2022/03/07 00:32:46;;;;;;;22.30;19.13;;;;;;;;;;2057493;28;20250;-57
2022/03/07 00:33:46;;;;;;;24.07;19.43;;;;;;;;;;2063177;28;20178;-57
2022/03/07 00:34:46;;;;;;;24.13;20.13;;;;;;;;;;2066218;28;20724;-60
2022/03/07 00:35:47;;;;;;;23.87;19.13;;;;;;;;;;2066543;28;20178;-57
2022/03/07 00:36:47;;;;;;;24.23;19.27;;;;;;;;;;2066495;28;20205;-59
2022/03/07 00:37:47;;;;;;;20.63;18.23;;;;;;;;;;2065879;28;20174;-58
2022/03/07 00:38:48;;;;;;;28.03;20.17;;;;;;;;;;2059398;28;20198;-58
2022/03/07 00:39:49;;;;;;;24.47;19.97;;;;;;;;;;2057491;28;20178;-60
2022/03/07 00:40:49;;;;;;;24.83;18.97;;;;;;;;;;2059515;28;20186;-57
2022/03/07 00:41:49;;;;;;;21.50;19.10;;;;;;;;;;2065772;28;20547;-57
2022/03/07 00:42:50;;;;;;;21.90;19.23;;;;;;;;;;2063446;28;20524;-59
2022/03/07 00:43:51;;;;;;;22.97;20.07;;;;;;;;;;2061589;28;20507;-57
2022/03/07 00:44:51;;;;;;;28.20;20.07;;;;;;;;;;2064608;28;20193;-58
2022/03/07 00:45:51;;;;;;;23.87;20.20;;;;;;;;;;2064575;28;20264;-58
2022/03/07 00:46:52;;;;;;;21.70;19.40;;;;;;;;;;2064538;28;20276;-59
2022/03/07 00:47:52;;;;;;;25.03;20.57;;;;;;;;;;2056777;28;20174;-58
2022/03/07 00:48:52;;;;;;;22.17;18.97;;;;;;;;;;2048482;29;20190;-57
2022/03/07 00:49:53;;;;;;;26.87;21.43;;;;;;;;;;2047059;29;20207;-58
2022/03/07 00:50:53;;;;;;;24.37;19.33;;;;;;;;;;2048262;28;20273;-59
2022/03/07 00:51:53;;;;;;;28.50;21.23;;;;;;;;;;2056560;28;20170;-58
2022/03/07 00:52:54;;;;;;;25.13;19.60;;;;;;;;;;2056265;28;20182;-57
2022/03/07 00:53:54;;;;;;;22.37;19.60;;;;;;;;;;2058004;28;20623;-58
2022/03/07 00:54:54;;;;;;;23.13;20.40;;;;;;;;;;2064882;28;20545;-58
2022/03/07 00:55:55;;;;;;;25.27;20.13;;;;;;;;;;2056460;28;20217;-58
2022/03/07 00:56:55;;;;;;;22.50;19.10;;;;;;;;;;2055514;28;20202;-59
2022/03/07 00:57:56;;;;;;;24.03;18.30;;;;;;;;;;2059310;28;20225;-56
2022/03/07 00:58:56;;;;;;;24.83;18.47;;;;;;;;;;2055840;28;20170;-56
2022/03/07 00:59:57;;;;;;;24.30;18.83;;;;;;;;;;2055473;28;20173;-57
2022/03/07 01:00:57;;;;;;;22.50;19.07;;;;;;;;;;2056170;28;20209;-57
2022/03/07 01:01:57;;;;;;;23.87;18.60;;;;;;;;;;2053875;28;20707;-54
2022/03/07 01:02:57;;;;;;;21.60;18.23;;;;;;;;;;2055929;28;20619;-54
2022/03/07 01:03:59;;;;;;;24.07;19.33;;;;;;;;;;2064436;28;20224;-58
2022/03/07 01:05:00;;;;;;;22.87;18.73;;;;;;;;;;2063952;28;20165;-58
2022/03/07 01:06:01;;;;;;;23.03;19.80;;;;;;;;;;2064828;28;20857;-54
2022/03/07 01:07:02;;;;;;;22.03;18.07;;;;;;;;;;2055513;28;20404;-56
2022/03/07 01:08:02;;;;;;;20.70;17.80;;;;;;;;;;2055968;28;20182;-56
2022/03/07 01:09:03;;;;;;;22.13;18.13;;;;;;;;;;2047593;29;20447;-58
2022/03/07 01:10:03;;;;;;;21.70;17.80;;;;;;;;;;2051497;28;20655;-54
2022/03/07 01:11:04;;;;;;;22.43;18.40;;;;;;;;;;2055657;28;20565;-55
2022/03/07 01:12:05;;;;;;;27.70;20.47;;;;;;;;;;2064594;28;20181;-58
2022/03/07 01:13:06;;;;;;;25.37;20.03;;;;;;;;;;2055383;28;20178;-58
2022/03/07 01:14:07;;;;;;;25.10;19.77;;;;;;;;;;2047374;28;20205;-55
2022/03/07 01:15:08;;;;;;;23.37;19.63;;;;;;;;;;2040869;29;20417;-58
2022/03/07 01:16:08;;;;;;;23.97;18.63;;;;;;;;;;2051731;28;20260;-57
2022/03/07 01:17:08;;;;;;;22.10;18.87;;;;;;;;;;2056155;28;20475;-56
2022/03/07 01:18:09;;;;;;;29.27;22.50;;;;;;;;;;2056029;28;20194;-57
2022/03/07 01:19:09;;;;;;;45.70;29.93;;;;;;;;;;2048981;29;20755;-59
2022/03/07 01:20:10;;;;;;;43.80;28.67;;;;;;;;;;2048415;29;20183;-56
2022/03/07 01:21:11;;;;;;;40.07;26.07;;;;;;;;;;2056017;28;20210;-58
2022/03/07 01:22:12;;;;;;;40.47;27.27;;;;;;;;;;2064132;28;20261;-57
2022/03/07 01:23:12;;;;;;;24.47;20.70;;;;;;;;;;2064615;28;20462;-58
2022/03/07 01:24:12;;;;;;;24.93;19.67;;;;;;;;;;2064842;28;20195;-57
2022/03/07 01:25:13;;;;;;;23.53;19.50;;;;;;;;;;2065080;28;20189;-58
2022/03/07 01:26:13;;;;;;;22.23;18.47;;;;;;;;;;2055672;28;20732;-57
2022/03/07 01:27:13;;;;;;;20.43;17.27;;;;;;;;;;2056123;28;20265;-57
2022/03/07 01:28:14;;;;;;;20.17;17.53;;;;;;;;;;2064173;28;20247;-57
2022/03/07 01:29:14;;;;;;;19.93;17.40;;;;;;;;;;2055787;28;20672;-57
2022/03/07 01:30:14;;;;;;;19.53;17.53;;;;;;;;;;2055965;28;20598;-57
2022/03/07 01:31:15;;;;;;;19.90;17.33;;;;;;;;;;2056029;28;20288;-56
2022/03/07 01:32:16;;;;;;;22.53;17.90;;;;;;;;;;2055431;28;20202;-57
2022/03/07 01:33:17;;;;;;;21.40;18.70;;;;;;;;;;2062706;28;20272;-58
2022/03/07 01:34:18;;;;;;;21.47;18.03;;;;;;;;;;2063702;28;20433;-59
2022/03/07 01:35:18;;;;;;;20.50;17.33;;;;;;;;;;2056161;28;20190;-58
2022/03/07 01:36:19;;;;;;;22.20;17.07;;;;;;;;;;2046934;29;20258;-57
2022/03/07 01:37:19;;;;;;;20.57;17.17;;;;;;;;;;2047683;28;20171;-59
2022/03/07 01:38:19;;;;;;;19.53;16.43;;;;;;;;;;2058143;28;20222;-59
2022/03/07 01:39:19;;;;;;;21.03;16.73;;;;;;;;;;2065036;28;20194;-59
2022/03/07 01:40:20;;;;;;;21.20;17.30;;;;;;;;;;2066449;28;20233;-57
2022/03/07 01:41:20;;;;;;;18.87;16.87;;;;;;;;;;2058224;28;20316;-56
2022/03/07 01:42:20;;;;;;;18.83;16.73;;;;;;;;;;2058825;28;20186;-61
2022/03/07 01:43:21;;;;;;;21.63;16.20;;;;;;;;;;2066066;28;20178;-58
2022/03/07 01:44:23;;;;;;;23.03;18.47;;;;;;;;;;2067600;28;20256;-56
2022/03/07 01:45:23;;;;;;;22.83;17.67;;;;;;;;;;2058110;28;20212;-59
2022/03/07 01:46:24;;;;;;;18.80;16.80;;;;;;;;;;2057270;28;20446;-54
2022/03/07 01:47:25;;;;;;;19.87;16.50;;;;;;;;;;2066379;28;20170;-57
2022/03/07 01:48:26;;;;;;;19.33;16.47;;;;;;;;;;2066379;28;20236;-56
2022/03/07 01:49:26;;;;;;;19.47;16.83;;;;;;;;;;2065092;28;20287;-55
2022/03/07 01:50:28;;;;;;;19.33;17.20;;;;;;;;;;2049889;28;20195;-58
2022/03/07 01:51:28;;;;;;;20.80;18.17;;;;;;;;;;2048615;28;20616;-57
2022/03/07 01:52:28;;;;;;;18.83;16.77;;;;;;;;;;2048969;29;20211;-58
2022/03/07 01:53:29;;;;;;;19.47;17.20;;;;;;;;;;2048831;29;20199;-58
2022/03/07 01:54:30;;;;;;;19.07;16.60;;;;;;;;;;2048545;29;20186;-57
2022/03/07 01:55:30;;;;;;;18.80;16.80;;;;;;;;;;2048847;29;20171;-56
2022/03/07 01:56:34;;;;;;;18.37;16.40;;;;;;;;;;2057635;28;20202;-57
2022/03/07 01:57:39;;;;;;;19.70;16.37;;;;;;;;;;2050083;28;20174;-55
2022/03/07 01:58:39;;;;;;;18.53;16.30;;;;;;;;;;2051776;28;20842;-55
2022/03/07 01:59:39;;;;;;;19.87;16.40;;;;;;;;;;2049016;29;20179;-58
2022/03/07 02:00:40;;;;;;;20.57;17.30;;;;;;;;;;2049122;28;20605;-57
2022/03/07 02:01:41;;;;;;;17.83;15.93;;;;;;;;;;2052078;28;20205;-56
2022/03/07 02:02:42;;;;;;;20.03;18.03;;;;;;;;;;2049387;29;20677;-58
2022/03/07 02:03:45;;;;;;;19.17;17.17;;;;;;;;;;2042244;29;20189;-57
2022/03/07 02:04:45;;;;;;;17.33;15.70;;;;;;;;;;2053568;28;20240;-54
2022/03/07 02:05:47;;;;;;;20.07;15.63;;;;;;;;;;2057806;28;20774;-57
2022/03/07 02:06:57;;;;;;;17.47;15.70;;;;;;;;;;2050492;28;20183;-55
2022/03/07 02:07:58;;;;;;;18.97;16.23;;;;;;;;;;2047129;29;20472;-57
2022/03/07 02:08:59;;;;;;;20.73;16.00;;;;;;;;;;2046265;29;20178;-56
2022/03/07 02:10:08;;;;;;;18.83;16.40;;;;;;;;;;2048072;28;20183;-57
2022/03/07 02:11:09;;;;;;;19.03;16.53;;;;;;;;;;2049582;28;20214;-53
2022/03/07 02:12:09;;;;;;;19.20;16.57;;;;;;;;;;2040121;29;20222;-57
2022/03/07 02:13:10;;;;;;;23.33;16.67;;;;;;;;;;2049820;29;20271;-57
2022/03/07 02:14:20;;;;;;;19.10;17.03;;;;;;;;;;2055829;28;20317;-56
2022/03/07 02:15:24;;;;;;;17.93;16.03;;;;;;;;;;2052812;28;20222;-56
2022/03/07 02:16:26;;;;;;;18.97;16.97;;;;;;;;;;2049159;28;20511;-57
2022/03/07 02:17:27;;;;;;;20.53;17.43;;;;;;;;;;2057125;28;20182;-56
2022/03/07 02:18:30;;;;;;;17.87;15.87;;;;;;;;;;2053905;28;20190;-56
2022/03/07 02:19:36;;;;;;;18.83;16.60;;;;;;;;;;2057078;28;20519;-57
2022/03/07 02:20:37;;;;;;;18.77;16.80;;;;;;;;;;2050754;28;20272;-57
2022/03/07 02:21:41;;;;;;;20.87;16.13;;;;;;;;;;2057205;28;20174;-59
2022/03/07 02:22:52;;;;;;;19.97;16.90;;;;;;;;;;2057378;28;20592;-55
2022/03/07 02:23:53;;;;;;;18.73;16.80;;;;;;;;;;2049702;28;20412;-58
2022/03/07 02:24:53;;;;;;;20.60;18.00;;;;;;;;;;2057483;28;20174;-59
2022/03/07 02:25:53;;;;;;;20.30;16.70;;;;;;;;;;2057538;28;20182;-58
2022/03/07 02:26:54;;;;;;;17.70;15.83;;;;;;;;;;2051912;28;20175;-57
2022/03/07 02:27:55;;;;;;;18.63;16.30;;;;;;;;;;2052709;28;20889;-57
2022/03/07 02:28:55;;;;;;;18.73;16.83;;;;;;;;;;2057627;28;20411;-60
2022/03/07 02:30:00;;;;;;;17.63;15.43;;;;;;;;;;2057830;28;20233;-57
2022/03/07 02:31:03;;;;;;;17.20;15.40;;;;;;;;;;2057131;28;20490;-56
2022/03/07 02:32:05;;;;;;;19.67;16.57;;;;;;;;;;2057395;28;20436;-59
2022/03/07 02:33:12;;;;;;;17.73;15.83;;;;;;;;;;2050041;28;20468;-58
2022/03/07 02:34:12;;;;;;;18.97;17.00;;;;;;;;;;2050049;28;20178;-58
2022/03/07 02:35:13;;;;;;;17.53;15.83;;;;;;;;;;2057844;28;20193;-57
2022/03/07 02:36:14;;;;;;;17.00;15.17;;;;;;;;;;2065667;28;20327;-56
2022/03/07 02:37:15;;;;;;;18.90;16.77;;;;;;;;;;2056472;28;20679;-54
2022/03/07 02:38:34;;;;;;;19.00;15.70;;;;;;;;;;2057177;28;20614;-59
2022/03/07 02:39:35;;;;;;;21.87;18.27;;;;;;;;;;2049432;29;20216;-56
2022/03/07 02:40:35;;;;;;;23.73;18.60;;;;;;;;;;2048992;28;20421;-58
2022/03/07 02:41:38;;;;;;;22.80;18.83;;;;;;;;;;2057151;28;20181;-62
2022/03/07 02:42:39;;;;;;;22.27;18.80;;;;;;;;;;2049089;28;20175;-56
2022/03/07 02:43:39;;;;;;;19.27;16.40;;;;;;;;;;2045240;28;20516;-57
2022/03/07 02:44:40;;;;;;;20.47;17.10;;;;;;;;;;2057247;28;20237;-54
2022/03/07 02:45:41;;;;;;;19.57;17.40;;;;;;;;;;2057117;28;20244;-56
2022/03/07 02:46:41;;;;;;;19.40;17.13;;;;;;;;;;2042390;29;20222;-58
2022/03/07 02:47:41;;;;;;;21.50;17.60;;;;;;;;;;2047924;28;20266;-57
2022/03/07 02:48:42;;;;;;;18.60;15.93;;;;;;;;;;2050555;28;20198;-56
2022/03/07 02:49:42;;;;;;;21.27;17.43;;;;;;;;;;2053885;28;20202;-57
2022/03/07 02:50:43;;;;;;;23.10;17.93;;;;;;;;;;2042156;29;20188;-59
2022/03/07 02:51:43;;;;;;;20.43;17.40;;;;;;;;;;2047178;29;20214;-59
2022/03/07 02:52:44;;;;;;;18.87;16.47;;;;;;;;;;2050881;28;20476;-58
2022/03/07 02:53:44;;;;;;;18.37;16.53;;;;;;;;;;2065506;28;20181;-57
2022/03/07 02:54:44;;;;;;;18.63;16.63;;;;;;;;;;2064723;28;20169;-60
2022/03/07 02:55:44;;;;;;;24.40;17.53;;;;;;;;;;2066294;28;20180;-57
2022/03/07 02:56:46;;;;;;;22.23;17.13;;;;;;;;;;2065274;28;20209;-58
2022/03/07 02:57:46;;;;;;;20.87;17.10;;;;;;;;;;2066610;28;20234;-58
2022/03/07 02:58:46;;;;;;;20.97;16.67;;;;;;;;;;2057906;28;20243;-58
2022/03/07 02:59:47;;;;;;;21.00;17.63;;;;;;;;;;2056295;28;20181;-57
2022/03/07 03:00:47;;;;;;;18.57;16.63;;;;;;;;;;2065392;28;20270;-58
2022/03/07 03:01:48;;;;;;;18.13;16.23;;;;;;;;;;2058891;28;20186;-58
2022/03/07 03:02:49;;;;;;;22.60;16.53;;;;;;;;;;2048153;28;20672;-56
2022/03/07 03:03:49;;;;;;;18.73;16.73;;;;;;;;;;2056699;28;20191;-58
2022/03/07 03:04:49;;;;;;;18.60;16.67;;;;;;;;;;2065361;28;20256;-58
2022/03/07 03:05:54;;;;;;;17.67;15.83;;;;;;;;;;2065746;28;20169;-58
2022/03/07 03:06:54;;;;;;;20.33;16.03;;;;;;;;;;2064652;28;20177;-52
2022/03/07 03:07:54;;;;;;;21.20;17.13;;;;;;;;;;2056595;28;21826;-56
2022/03/07 03:08:55;;;;;;;19.77;17.70;;;;;;;;;;2056598;28;20186;-58
2022/03/07 03:09:55;;;;;;;17.47;15.00;;;;;;;;;;2056873;28;20648;-58
2022/03/07 03:10:57;;;;;;;18.13;15.63;;;;;;;;;;2056704;28;20576;-57
2022/03/07 03:11:57;;;;;;;17.80;15.93;;;;;;;;;;2062093;28;20182;-56
2022/03/07 03:12:57;;;;;;;17.47;15.57;;;;;;;;;;2065596;28;20519;-56
2022/03/07 03:13:58;;;;;;;17.63;14.90;;;;;;;;;;2045161;29;20568;-54
2022/03/07 03:14:58;;;;;;;18.47;14.40;;;;;;;;;;2048926;29;20266;-59
2022/03/07 03:15:58;;;;;;;15.97;14.30;;;;;;;;;;2067259;28;20212;-57
2022/03/07 03:16:58;;;;;;;16.73;14.90;;;;;;;;;;2071505;28;20194;-54
2022/03/07 03:17:59;;;;;;;16.83;13.70;;;;;;;;;;2071376;28;20192;-57
2022/03/07 03:18:59;;;;;;;15.93;14.37;;;;;;;;;;2072157;28;20185;-58
2022/03/07 03:19:59;;;;;;;15.87;14.17;;;;;;;;;;2072079;28;20197;-58
2022/03/07 03:21:00;;;;;;;18.07;15.77;;;;;;;;;;2071583;28;20194;-55
2022/03/07 03:22:00;;;;;;;17.13;15.33;;;;;;;;;;2071608;28;20171;-55
2022/03/07 03:23:00;;;;;;;19.40;16.43;;;;;;;;;;2069703;28;20169;-55
2022/03/07 03:24:00;;;;;;;17.30;15.27;;;;;;;;;;2071475;28;20178;-55
2022/03/07 03:25:01;;;;;;;20.10;15.83;;;;;;;;;;2072723;28;20650;-53
2022/03/07 03:26:01;;;;;;;19.93;15.83;;;;;;;;;;2067876;28;20244;-50
2022/03/07 03:27:01;;;;;;;17.60;15.63;;;;;;;;;;2063977;28;20228;-54
2022/03/07 03:28:02;;;;;;;18.03;15.60;;;;;;;;;;2062342;28;20236;-54
2022/03/07 03:29:02;;;;;;;19.10;17.00;;;;;;;;;;2071416;28;20218;-53
2022/03/07 03:30:04;;;;;;;18.53;16.73;;;;;;;;;;2068391;28;20170;-56
2022/03/07 03:31:04;;;;;;;19.30;17.30;;;;;;;;;;2074112;23;20445;-65
2022/03/07 03:32:05;;;;;;;19.00;17.00;;;;;;;;;;2073944;28;20632;-62
2022/03/07 03:33:05;;;;;;;18.13;16.33;;;;;;;;;;2075027;28;20174;-62
2022/03/07 03:34:05;;;;;;;23.70;17.37;;;;;;;;;;2072520;28;20260;-63
2022/03/07 03:35:06;;;;;;;17.97;16.17;;;;;;;;;;2073601;28;20595;-61
2022/03/07 03:36:06;;;;;;;20.70;17.03;;;;;;;;;;2073411;28;20529;-63
2022/03/07 03:37:06;;;;;;;18.40;16.40;;;;;;;;;;2073850;28;20828;-63
2022/03/07 03:38:08;;;;;;;20.47;16.70;;;;;;;;;;2074072;28;20177;-61
2022/03/07 03:39:09;;;;;;;18.60;16.60;;;;;;;;;;2073906;28;20180;-63
2022/03/07 03:40:10;;;;;;;17.67;15.60;;;;;;;;;;2073496;28;20674;-64
2022/03/07 03:41:10;;;;;;;20.63;17.03;;;;;;;;;;2073583;28;20956;-60
2022/03/07 03:42:11;;;;;;;18.87;16.83;;;;;;;;;;2073958;28;20173;-58
2022/03/07 03:43:11;;;;;;;19.13;16.20;;;;;;;;;;2065223;28;21995;-64
2022/03/07 03:44:11;;;;;;;19.27;17.03;;;;;;;;;;2065000;28;20178;-64
2022/03/07 03:45:12;;;;;;;18.83;16.93;;;;;;;;;;2065288;28;20611;-63
2022/03/07 03:46:12;;;;;;;21.93;17.97;;;;;;;;;;2065157;28;20178;-62
2022/03/07 03:47:12;;;;;;;20.03;17.83;;;;;;;;;;2073780;28;20185;-60
2022/03/07 03:48:12;;;;;;;18.70;16.80;;;;;;;;;;2065709;28;20201;-61
2022/03/07 03:49:13;;;;;;;18.40;16.43;;;;;;;;;;2065061;28;20165;-63
2022/03/07 03:50:14;;;;;;;20.97;17.93;;;;;;;;;;2066989;28;20193;-63
2022/03/07 03:51:14;;;;;;;20.30;16.97;;;;;;;;;;2065288;28;20201;-60
2022/03/07 03:52:14;;;;;;;19.23;17.20;;;;;;;;;;2070599;28;20204;-64
2022/03/07 03:53:14;;;;;;;20.00;17.20;;;;;;;;;;2071935;28;20188;-62
2022/03/07 03:54:15;;;;;;;19.10;17.13;;;;;;;;;;2072063;28;20286;-64
2022/03/07 03:55:16;;;;;;;20.67;17.73;;;;;;;;;;2072352;28;20260;-63
2022/03/07 03:56:16;;;;;;;21.83;18.87;;;;;;;;;;2070867;28;20169;-64
2022/03/07 03:57:17;;;;;;;22.70;18.47;;;;;;;;;;2071442;28;20177;-63
2022/03/07 03:58:17;;;;;;;26.53;19.07;;;;;;;;;;2070868;28;20221;-64
2022/03/07 03:59:17;;;;;;;20.37;18.17;;;;;;;;;;2072886;28;20284;-64
2022/03/07 04:00:18;;;;;;;20.77;17.57;;;;;;;;;;2073461;28;20173;-64
2022/03/07 04:01:18;;;;;;;21.43;17.97;;;;;;;;;;2070131;28;20212;-63
2022/03/07 04:02:19;;;;;;;20.97;17.50;;;;;;;;;;2071368;28;20169;-65
2022/03/07 04:03:19;;;;;;;19.40;17.40;;;;;;;;;;2069356;28;20176;-65
2022/03/07 04:04:19;;;;;;;21.70;18.50;;;;;;;;;;2071050;28;20181;-63
2022/03/07 04:05:20;;;;;;;22.73;19.07;;;;;;;;;;2072443;28;20173;-64
2022/03/07 04:06:20;;;;;;;19.07;17.07;;;;;;;;;;2073117;28;20280;-63
2022/03/07 04:07:20;;;;;;;21.03;17.97;;;;;;;;;;2070747;28;20181;-57
2022/03/07 04:08:23;;;;;;;21.67;18.47;;;;;;;;;;2073197;28;20169;-64
2022/03/07 04:09:33;;;;;;;18.90;17.00;;;;;;;;;;2070457;28;20224;-63
2022/03/07 04:10:33;;;;;;;19.40;17.40;;;;;;;;;;2072866;28;20280;-65
2022/03/07 04:11:33;;;;;;;21.10;18.00;;;;;;;;;;2071669;28;20292;-62
2022/03/07 04:12:34;;;;;;;19.33;17.13;;;;;;;;;;2073415;28;20251;-63
2022/03/07 04:13:34;;;;;;;20.57;17.57;;;;;;;;;;2066720;28;20177;-65
2022/03/07 04:14:34;;;;;;;20.37;17.77;;;;;;;;;;2072288;28;20188;-62
2022/03/07 04:15:38;;;;;;;18.87;17.07;;;;;;;;;;2073236;28;20176;-64
2022/03/07 04:16:39;;;;;;;20.63;17.27;;;;;;;;;;2063758;28;20209;-64
2022/03/07 04:17:39;;;;;;;19.17;17.27;;;;;;;;;;2063697;28;20431;-62
2022/03/07 04:18:40;;;;;;;20.13;16.87;;;;;;;;;;2066120;28;20178;-64
2022/03/07 04:19:40;;;;;;;19.60;16.80;;;;;;;;;;2072610;28;20161;-64
2022/03/07 04:20:40;;;;;;;18.53;16.70;;;;;;;;;;2066205;28;20182;-63
2022/03/07 04:21:41;;;;;;;18.97;16.97;;;;;;;;;;2071898;28;20575;-63
2022/03/07 04:22:41;;;;;;;21.23;17.67;;;;;;;;;;2072250;28;20366;-63
2022/03/07 04:23:41;;;;;;;20.50;17.47;;;;;;;;;;2063253;28;20181;-62
2022/03/07 04:24:42;;;;;;;20.07;17.17;;;;;;;;;;2064484;28;20240;-62
2022/03/07 04:25:42;;;;;;;20.57;18.27;;;;;;;;;;2072477;28;20256;-60
2022/03/07 04:26:42;;;;;;;22.63;17.80;;;;;;;;;;2073431;28;20231;-62
2022/03/07 04:27:43;;;;;;;20.37;17.77;;;;;;;;;;2071732;28;20180;-64
2022/03/07 04:28:43;;;;;;;18.90;16.73;;;;;;;;;;2073440;28;20196;-62
2022/03/07 04:29:43;;;;;;;19.90;17.90;;;;;;;;;;2071521;28;20272;-60
2022/03/07 04:30:44;;;;;;;20.00;17.90;;;;;;;;;;2072954;28;20188;-60
2022/03/07 04:31:44;;;;;;;21.13;18.00;;;;;;;;;;2071197;28;20185;-63
2022/03/07 04:32:45;;;;;;;25.53;18.70;;;;;;;;;;2072390;28;20256;-62
2022/03/07 04:33:45;;;;;;;19.47;17.57;;;;;;;;;;2073410;28;20196;-63
2022/03/07 04:34:45;;;;;;;18.93;16.80;;;;;;;;;;2063243;28;20684;-60
2022/03/07 04:35:45;;;;;;;20.40;18.27;;;;;;;;;;2064714;28;20178;-64
2022/03/07 04:36:46;;;;;;;22.30;17.97;;;;;;;;;;2072184;28;20209;-63
2022/03/07 04:37:46;;;;;;;20.37;18.07;;;;;;;;;;2073500;28;20177;-64
2022/03/07 04:38:47;;;;;;;24.03;17.57;;;;;;;;;;2073033;28;20169;-65
2022/03/07 04:39:48;;;;;;;21.93;17.93;;;;;;;;;;2073151;28;20177;-61
2022/03/07 04:40:48;;;;;;;20.63;18.40;;;;;;;;;;2064538;28;20898;-62
2022/03/07 04:41:48;;;;;;;22.13;17.97;;;;;;;;;;2057262;28;20244;-64
2022/03/07 04:42:48;;;;;;;21.17;18.10;;;;;;;;;;2064547;28;20174;-63
2022/03/07 04:43:49;;;;;;;22.37;18.63;;;;;;;;;;2057469;28;20671;-62
2022/03/07 04:44:49;;;;;;;20.33;18.23;;;;;;;;;;2052937;28;20175;-64
2022/03/07 04:45:52;;;;;;;20.00;17.83;;;;;;;;;;2073400;28;20208;-63
2022/03/07 04:46:52;;;;;;;20.57;18.20;;;;;;;;;;2063947;28;20341;-62
2022/03/07 04:47:52;;;;;;;19.20;17.13;;;;;;;;;;2065027;28;20921;-63
2022/03/07 04:48:53;;;;;;;22.80;18.20;;;;;;;;;;2071349;28;20196;-61
2022/03/07 04:49:53;;;;;;;20.57;17.53;;;;;;;;;;2073209;28;20184;-60
2022/03/07 04:50:53;;;;;;;21.30;17.43;;;;;;;;;;2073349;28;20184;-61
2022/03/07 04:51:53;;;;;;;19.40;17.03;;;;;;;;;;2071610;28;20180;-64
2022/03/07 04:52:54;;;;;;;19.43;17.53;;;;;;;;;;2071543;28;20605;-64
2022/03/07 04:53:54;;;;;;;20.33;17.27;;;;;;;;;;2072139;28;20179;-61
2022/03/07 04:54:54;;;;;;;19.50;17.40;;;;;;;;;;2071365;28;20177;-64
2022/03/07 04:55:55;;;;;;;18.33;16.50;;;;;;;;;;2072523;28;20335;-64
2022/03/07 04:56:55;;;;;;;19.13;15.97;;;;;;;;;;2072411;28;20259;-64
2022/03/07 04:57:55;;;;;;;19.07;17.03;;;;;;;;;;2070882;28;20200;-64
2022/03/07 04:58:55;;;;;;;20.47;17.47;;;;;;;;;;2072808;28;20259;-64
2022/03/07 04:59:56;;;;;;;20.70;18.27;;;;;;;;;;2073208;28;20181;-61
2022/03/07 05:00:56;;;;;;;19.37;17.30;;;;;;;;;;2073060;28;20165;-63
2022/03/07 05:01:56;;;;;;;21.50;16.70;;;;;;;;;;2072496;28;20233;-63
2022/03/07 05:02:56;;;;;;;19.07;17.17;;;;;;;;;;2071992;28;20193;-64
2022/03/07 05:03:56;;;;;;;22.13;17.73;;;;;;;;;;2072452;28;20248;-64
2022/03/07 05:04:57;;;;;;;19.70;17.70;;;;;;;;;;2072348;28;20173;-61
2022/03/07 05:05:57;;;;;;;18.97;17.07;;;;;;;;;;2071964;28;20177;-63
2022/03/07 05:06:58;;;;;;;18.30;16.37;;;;;;;;;;2072404;28;20212;-64
2022/03/07 05:07:58;;;;;;;19.37;17.30;;;;;;;;;;2063835;28;20170;-64
2022/03/07 05:08:58;;;;;;;18.90;16.90;;;;;;;;;;2063753;28;20201;-62
2022/03/07 05:09:58;;;;;;;18.47;16.13;;;;;;;;;;2067950;28;20272;-65
2022/03/07 05:10:59;;;;;;;21.07;18.00;;;;;;;;;;2067352;28;20169;-63
2022/03/07 05:11:59;;;;;;;19.30;16.03;;;;;;;;;;2070857;28;20238;-62
2022/03/07 05:12:59;;;;;;;19.90;16.80;;;;;;;;;;2063826;28;20295;-63
2022/03/07 05:13:59;;;;;;;20.07;17.90;;;;;;;;;;2062985;28;20183;-62
2022/03/07 05:14:59;;;;;;;19.13;17.13;;;;;;;;;;2072532;28;20188;-60
2022/03/07 05:16:00;;;;;;;17.60;15.70;;;;;;;;;;2072359;28;20244;-59
2022/03/07 05:17:00;;;;;;;18.40;16.47;;;;;;;;;;2072243;28;20849;-63
2022/03/07 05:18:00;;;;;;;20.67;17.20;;;;;;;;;;2072603;28;20538;-61
2022/03/07 05:19:01;;;;;;;19.67;16.37;;;;;;;;;;2074378;28;20183;-63
2022/03/07 05:20:01;;;;;;;19.93;17.83;;;;;;;;;;2067408;28;20192;-59
2022/03/07 05:21:02;;;;;;;19.93;16.73;;;;;;;;;;2069766;28;20220;-63
2022/03/07 05:22:02;;;;;;;18.27;16.37;;;;;;;;;;2074419;28;20551;-63
2022/03/07 05:23:03;;;;;;;17.87;15.97;;;;;;;;;;2074371;28;20173;-60
2022/03/07 05:24:03;;;;;;;18.87;16.97;;;;;;;;;;2073616;28;20173;-62
2022/03/07 05:25:04;;;;;;;20.37;18.27;;;;;;;;;;2072096;28;20608;-65
2022/03/07 05:26:05;;;;;;;19.40;17.40;;;;;;;;;;2074505;28;20204;-64
2022/03/07 05:27:06;;;;;;;20.97;18.73;;;;;;;;;;2071782;28;20192;-62
2022/03/07 05:28:06;;;;;;;21.33;18.73;;;;;;;;;;2074673;28;20181;-65
2022/03/07 05:29:06;;;;;;;21.13;18.87;;;;;;;;;;2074394;28;20185;-60
2022/03/07 05:30:08;;;;;;;21.77;19.47;;;;;;;;;;2071378;28;20172;-64
2022/03/07 05:31:12;;;;;;;20.27;18.13;;;;;;;;;;2065186;28;20216;-64
2022/03/07 05:32:12;;;;;;;20.87;18.37;;;;;;;;;;2064558;28;20289;-64
2022/03/07 05:33:12;;;;;;;19.37;17.37;;;;;;;;;;2057482;28;20177;-57
2022/03/07 05:34:13;;;;;;;18.77;16.67;;;;;;;;;;2064943;28;20251;-64
2022/03/07 05:35:13;;;;;;;19.60;17.47;;;;;;;;;;2074269;28;20539;-63
2022/03/07 05:36:14;;;;;;;18.57;16.57;;;;;;;;;;2057768;28;20181;-64
2022/03/07 05:37:14;;;;;;;18.27;16.33;;;;;;;;;;2056800;28;20214;-63
2022/03/07 05:38:14;;;;;;;16.90;15.10;;;;;;;;;;2073892;28;20183;-64
2022/03/07 05:39:15;;;;;;;18.87;16.50;;;;;;;;;;2074376;28;20224;-63
2022/03/07 05:40:15;;;;;;;18.97;16.60;;;;;;;;;;2072631;28;20555;-63
2022/03/07 05:41:16;;;;;;;18.93;17.03;;;;;;;;;;2065607;28;20501;-64
2022/03/07 05:42:16;;;;;;;18.47;16.47;;;;;;;;;;2064964;28;20242;-63
2022/03/07 05:43:16;;;;;;;18.33;16.33;;;;;;;;;;2069070;28;20227;-62
2022/03/07 05:44:17;;;;;;;20.07;17.43;;;;;;;;;;2071741;28;20212;-65
2022/03/07 05:45:17;;;;;;;18.37;16.47;;;;;;;;;;2073636;28;20258;-61
2022/03/07 05:46:17;;;;;;;18.60;16.47;;;;;;;;;;2066042;28;20845;-63
2022/03/07 05:47:18;;;;;;;17.07;15.27;;;;;;;;;;2065074;28;20689;-64
2022/03/07 05:48:18;;;;;;;22.37;16.97;;;;;;;;;;2073193;28;20217;-64
2022/03/07 05:49:18;;;;;;;19.97;17.67;;;;;;;;;;2071541;28;20181;-65
2022/03/07 05:50:18;;;;;;;24.37;19.97;;;;;;;;;;2072757;28;20323;-62
2022/03/07 05:51:23;;;;;;;22.17;18.07;;;;;;;;;;2071802;28;20236;-65
2022/03/07 05:52:23;;;;;;;21.20;18.53;;;;;;;;;;2073929;28;20582;-63
2022/03/07 05:53:24;;;;;;;21.77;19.20;;;;;;;;;;2073786;28;20433;-63